sensor_id;sensor_type;location;lat;lon;timestamp;P1;durP1;ratioP1;P2;durP2;ratioP2
10269;SDS011;70826;50.930;5.334;2023-11-19T00:01:35;15.90;;;15.07;;
10269;SDS011;70826;50.930;5.334;2023-11-19T00:04:03;16.83;;;15.98;;
10269;SDS011;70826;50.930;5.334;2023-11-19T00:06:29;17.88;;;16.98;;
10269;SDS011;70826;50.930;5.334;2023-11-19T00:09:00;18.05;;;17.17;;
10269;SDS011;70826;50.930;5.334;2023-11-19T00:11:26;17.95;;;17.08;;
10269;SDS011;70826;50.930;5.334;2023-11-19T00:13:56;19.13;;;18.02;;
10269;SDS011;70826;50.930;5.334;2023-11-19T00:16:26;17.85;;;17.00;;
10269;SDS011;70826;50.930;5.334;2023-11-19T00:18:54;19.27;;;18.33;;
10269;SDS011;70826;50.930;5.334;2023-11-19T00:21:22;20.83;;;19.80;;
10269;SDS011;70826;50.930;5.334;2023-11-19T00:23:47;19.67;;;18.73;;
10269;SDS011;70826;50.930;5.334;2023-11-19T00:26:17;19.90;;;18.90;;
10269;SDS011;70826;50.930;5.334;2023-11-19T00:28:45;22.23;;;21.13;;
10269;SDS011;70826;50.930;5.334;2023-11-19T00:31:13;21.17;;;20.05;;
10269;SDS011;70826;50.930;5.334;2023-11-19T00:33:41;19.67;;;18.73;;
10269;SDS011;70826;50.930;5.334;2023-11-19T00:36:11;18.70;;;17.77;;
10269;SDS011;70826;50.930;5.334;2023-11-19T00:38:39;18.33;;;17.42;;
10269;SDS011;70826;50.930;5.334;2023-11-19T00:41:09;17.52;;;16.70;;
10269;SDS011;70826;50.930;5.334;2023-11-19T00:43:37;9.60;;;9.10;;
10269;SDS011;70826;50.930;5.334;2023-11-19T00:46:06;10.05;;;9.55;;
10269;SDS011;70826;50.930;5.334;2023-11-19T00:48:35;11.07;;;10.57;;
10269;SDS011;70826;50.930;5.334;2023-11-19T00:51:00;13.50;;;12.88;;
10269;SDS011;70826;50.930;5.334;2023-11-19T00:53:26;16.05;;;15.27;;
10269;SDS011;70826;50.930;5.334;2023-11-19T00:55:54;15.48;;;14.73;;
10269;SDS011;70826;50.930;5.334;2023-11-19T00:58:22;16.25;;;15.40;;
10269;SDS011;70826;50.930;5.334;2023-11-19T01:00:55;16.00;;;15.23;;
10269;SDS011;70826;50.930;5.334;2023-11-19T01:03:23;17.58;;;16.73;;
10269;SDS011;70826;50.930;5.334;2023-11-19T01:05:51;16.67;;;15.80;;
10269;SDS011;70826;50.930;5.334;2023-11-19T01:08:19;16.48;;;15.60;;
10269;SDS011;70826;50.930;5.334;2023-11-19T01:10:49;16.58;;;15.68;;
10269;SDS011;70826;50.930;5.334;2023-11-19T01:13:20;17.13;;;16.25;;
10269;SDS011;70826;50.930;5.334;2023-11-19T01:15:45;16.58;;;15.70;;
10269;SDS011;70826;50.930;5.334;2023-11-19T01:18:16;17.42;;;16.42;;
10269;SDS011;70826;50.930;5.334;2023-11-19T01:20:44;15.88;;;15.02;;
10269;SDS011;70826;50.930;5.334;2023-11-19T01:23:14;15.80;;;15.00;;
10269;SDS011;70826;50.930;5.334;2023-11-19T01:25:45;17.38;;;16.50;;
10269;SDS011;70826;50.930;5.334;2023-11-19T01:28:13;15.35;;;14.50;;
10269;SDS011;70826;50.930;5.334;2023-11-19T01:30:43;16.15;;;15.30;;
10269;SDS011;70826;50.930;5.334;2023-11-19T01:33:09;16.42;;;15.55;;
10269;SDS011;70826;50.930;5.334;2023-11-19T01:35:39;15.52;;;14.63;;
10269;SDS011;70826;50.930;5.334;2023-11-19T01:38:06;14.90;;;14.13;;
10269;SDS011;70826;50.930;5.334;2023-11-19T01:40:36;14.25;;;13.45;;
10269;SDS011;70826;50.930;5.334;2023-11-19T01:43:04;14.45;;;13.65;;
10269;SDS011;70826;50.930;5.334;2023-11-19T01:45:35;14.70;;;13.88;;
10269;SDS011;70826;50.930;5.334;2023-11-19T01:48:03;14.00;;;13.25;;
10269;SDS011;70826;50.930;5.334;2023-11-19T01:50:32;14.23;;;13.43;;
10269;SDS011;70826;50.930;5.334;2023-11-19T01:53:00;13.52;;;12.77;;
10269;SDS011;70826;50.930;5.334;2023-11-19T01:55:29;12.80;;;11.93;;
10269;SDS011;70826;50.930;5.334;2023-11-19T01:57:58;12.32;;;11.63;;
10269;SDS011;70826;50.930;5.334;2023-11-19T02:00:29;12.02;;;11.35;;
10269;SDS011;70826;50.930;5.334;2023-11-19T02:03:00;11.48;;;10.70;;
10269;SDS011;70826;50.930;5.334;2023-11-19T02:05:26;12.10;;;11.32;;
10269;SDS011;70826;50.930;5.334;2023-11-19T02:07:52;12.68;;;11.68;;
10269;SDS011;70826;50.930;5.334;2023-11-19T02:10:23;11.50;;;10.70;;
10269;SDS011;70826;50.930;5.334;2023-11-19T02:12:56;10.38;;;9.82;;
10269;SDS011;70826;50.930;5.334;2023-11-19T02:15:21;11.00;;;10.32;;
10269;SDS011;70826;50.930;5.334;2023-11-19T02:17:49;10.40;;;9.63;;
10269;SDS011;70826;50.930;5.334;2023-11-19T02:20:18;10.27;;;9.68;;
10269;SDS011;70826;50.930;5.334;2023-11-19T02:22:49;11.02;;;10.32;;
10269;SDS011;70826;50.930;5.334;2023-11-19T02:25:24;10.73;;;10.02;;
10269;SDS011;70826;50.930;5.334;2023-11-19T02:27:56;11.38;;;10.45;;
10269;SDS011;70826;50.930;5.334;2023-11-19T02:30:24;12.07;;;11.20;;
10269;SDS011;70826;50.930;5.334;2023-11-19T02:32:59;12.52;;;11.52;;
10269;SDS011;70826;50.930;5.334;2023-11-19T02:35:30;13.02;;;12.15;;
10269;SDS011;70826;50.930;5.334;2023-11-19T02:37:56;12.93;;;11.95;;
10269;SDS011;70826;50.930;5.334;2023-11-19T02:40:27;13.23;;;12.48;;
10269;SDS011;70826;50.930;5.334;2023-11-19T02:42:55;12.80;;;12.00;;
10269;SDS011;70826;50.930;5.334;2023-11-19T02:45:24;12.43;;;11.57;;
10269;SDS011;70826;50.930;5.334;2023-11-19T02:47:51;12.32;;;11.52;;
10269;SDS011;70826;50.930;5.334;2023-11-19T02:50:17;11.52;;;10.65;;
10269;SDS011;70826;50.930;5.334;2023-11-19T02:52:50;12.05;;;11.25;;
10269;SDS011;70826;50.930;5.334;2023-11-19T02:55:21;12.05;;;11.25;;
10269;SDS011;70826;50.930;5.334;2023-11-19T02:57:48;13.40;;;12.35;;
10269;SDS011;70826;50.930;5.334;2023-11-19T03:00:21;12.45;;;11.40;;
10269;SDS011;70826;50.930;5.334;2023-11-19T03:02:59;12.00;;;11.10;;
10269;SDS011;70826;50.930;5.334;2023-11-19T03:05:37;11.35;;;10.45;;
10269;SDS011;70826;50.930;5.334;2023-11-19T03:08:02;11.52;;;10.73;;
10269;SDS011;70826;50.930;5.334;2023-11-19T03:10:28;12.95;;;12.02;;
10269;SDS011;70826;50.930;5.334;2023-11-19T03:12:56;11.95;;;11.05;;
10269;SDS011;70826;50.930;5.334;2023-11-19T03:15:22;12.90;;;11.88;;
10269;SDS011;70826;50.930;5.334;2023-11-19T03:17:50;13.43;;;12.38;;
10269;SDS011;70826;50.930;5.334;2023-11-19T03:20:19;13.35;;;12.30;;
10269;SDS011;70826;50.930;5.334;2023-11-19T03:22:48;12.32;;;11.45;;
10269;SDS011;70826;50.930;5.334;2023-11-19T03:25:18;12.18;;;11.23;;
10269;SDS011;70826;50.930;5.334;2023-11-19T03:27:48;11.57;;;10.68;;
10269;SDS011;70826;50.930;5.334;2023-11-19T03:30:15;12.02;;;10.95;;
10269;SDS011;70826;50.930;5.334;2023-11-19T03:32:42;12.52;;;11.27;;
10269;SDS011;70826;50.930;5.334;2023-11-19T03:35:10;13.00;;;12.00;;
10269;SDS011;70826;50.930;5.334;2023-11-19T03:37:37;12.00;;;11.13;;
10269;SDS011;70826;50.930;5.334;2023-11-19T03:40:05;12.85;;;11.98;;
10269;SDS011;70826;50.930;5.334;2023-11-19T03:42:33;11.50;;;10.55;;
10269;SDS011;70826;50.930;5.334;2023-11-19T03:45:07;12.48;;;11.48;;
10269;SDS011;70826;50.930;5.334;2023-11-19T03:47:37;11.02;;;10.23;;
10269;SDS011;70826;50.930;5.334;2023-11-19T03:50:06;11.73;;;10.73;;
10269;SDS011;70826;50.930;5.334;2023-11-19T03:52:35;11.73;;;10.65;;
10269;SDS011;70826;50.930;5.334;2023-11-19T03:55:01;12.25;;;11.23;;
10269;SDS011;70826;50.930;5.334;2023-11-19T03:57:32;12.85;;;11.90;;
10269;SDS011;70826;50.930;5.334;2023-11-19T03:59:58;11.35;;;10.35;;
10269;SDS011;70826;50.930;5.334;2023-11-19T04:02:24;12.00;;;10.98;;
10269;SDS011;70826;50.930;5.334;2023-11-19T04:04:58;12.18;;;11.07;;
10269;SDS011;70826;50.930;5.334;2023-11-19T04:07:24;12.18;;;11.20;;
10269;SDS011;70826;50.930;5.334;2023-11-19T04:09:51;11.68;;;10.68;;
10269;SDS011;70826;50.930;5.334;2023-11-19T04:12:17;11.27;;;10.30;;
10269;SDS011;70826;50.930;5.334;2023-11-19T04:14:43;11.27;;;10.38;;
10269;SDS011;70826;50.930;5.334;2023-11-19T04:17:10;12.00;;;10.82;;
10269;SDS011;70826;50.930;5.334;2023-11-19T04:19:41;11.95;;;10.85;;
10269;SDS011;70826;50.930;5.334;2023-11-19T04:22:08;11.57;;;10.65;;
10269;SDS011;70826;50.930;5.334;2023-11-19T04:24:34;11.57;;;10.55;;
10269;SDS011;70826;50.930;5.334;2023-11-19T04:27:02;11.13;;;10.23;;
10269;SDS011;70826;50.930;5.334;2023-11-19T04:29:29;11.25;;;10.32;;
10269;SDS011;70826;50.930;5.334;2023-11-19T04:32:00;11.77;;;10.68;;
10269;SDS011;70826;50.930;5.334;2023-11-19T04:34:30;11.27;;;10.15;;
10269;SDS011;70826;50.930;5.334;2023-11-19T04:36:58;10.65;;;9.85;;
10269;SDS011;70826;50.930;5.334;2023-11-19T04:39:29;9.13;;;8.43;;
10269;SDS011;70826;50.930;5.334;2023-11-19T04:42:00;10.13;;;9.13;;
10269;SDS011;70826;50.930;5.334;2023-11-19T04:44:25;10.00;;;9.10;;
10269;SDS011;70826;50.930;5.334;2023-11-19T04:46:53;10.48;;;9.50;;
10269;SDS011;70826;50.930;5.334;2023-11-19T04:49:21;10.27;;;9.32;;
10269;SDS011;70826;50.930;5.334;2023-11-19T04:51:51;9.73;;;9.02;;
10269;SDS011;70826;50.930;5.334;2023-11-19T04:54:19;9.90;;;9.00;;
10269;SDS011;70826;50.930;5.334;2023-11-19T04:56:48;11.20;;;9.43;;
10269;SDS011;70826;50.930;5.334;2023-11-19T04:59:14;11.00;;;9.90;;
10269;SDS011;70826;50.930;5.334;2023-11-19T05:01:46;11.85;;;10.30;;
10269;SDS011;70826;50.930;5.334;2023-11-19T05:04:13;10.18;;;9.38;;
10269;SDS011;70826;50.930;5.334;2023-11-19T05:06:46;10.60;;;9.50;;
10269;SDS011;70826;50.930;5.334;2023-11-19T05:09:11;10.38;;;9.50;;
10269;SDS011;70826;50.930;5.334;2023-11-19T05:11:38;10.00;;;9.10;;
10269;SDS011;70826;50.930;5.334;2023-11-19T05:14:09;11.02;;;9.93;;
10269;SDS011;70826;50.930;5.334;2023-11-19T05:16:34;10.02;;;9.02;;
10269;SDS011;70826;50.930;5.334;2023-11-19T05:19:04;10.65;;;9.60;;
10269;SDS011;70826;50.930;5.334;2023-11-19T05:21:34;10.43;;;9.43;;
10269;SDS011;70826;50.930;5.334;2023-11-19T05:24:01;9.88;;;9.02;;
10269;SDS011;70826;50.930;5.334;2023-11-19T05:26:30;10.13;;;9.13;;
10269;SDS011;70826;50.930;5.334;2023-11-19T05:28:57;10.98;;;9.98;;
10269;SDS011;70826;50.930;5.334;2023-11-19T05:31:27;10.60;;;9.48;;
10269;SDS011;70826;50.930;5.334;2023-11-19T05:33:56;10.75;;;9.75;;
10269;SDS011;70826;50.930;5.334;2023-11-19T05:36:21;10.75;;;9.65;;
10269;SDS011;70826;50.930;5.334;2023-11-19T05:38:49;11.05;;;9.32;;
10269;SDS011;70826;50.930;5.334;2023-11-19T05:41:17;10.48;;;9.32;;
10269;SDS011;70826;50.930;5.334;2023-11-19T05:43:43;10.30;;;9.00;;
10269;SDS011;70826;50.930;5.334;2023-11-19T05:46:08;10.85;;;9.85;;
10269;SDS011;70826;50.930;5.334;2023-11-19T05:48:34;12.48;;;9.95;;
10269;SDS011;70826;50.930;5.334;2023-11-19T05:50:59;11.43;;;10.40;;
10269;SDS011;70826;50.930;5.334;2023-11-19T05:53:30;10.48;;;9.52;;
10269;SDS011;70826;50.930;5.334;2023-11-19T05:55:56;10.57;;;9.57;;
10269;SDS011;70826;50.930;5.334;2023-11-19T05:58:25;11.48;;;10.27;;
10269;SDS011;70826;50.930;5.334;2023-11-19T06:00:56;12.13;;;10.93;;
10269;SDS011;70826;50.930;5.334;2023-11-19T06:03:26;10.40;;;9.45;;
10269;SDS011;70826;50.930;5.334;2023-11-19T06:05:56;10.30;;;9.30;;
10269;SDS011;70826;50.930;5.334;2023-11-19T06:08:21;12.13;;;10.45;;
10269;SDS011;70826;50.930;5.334;2023-11-19T06:10:52;10.77;;;9.73;;
10269;SDS011;70826;50.930;5.334;2023-11-19T06:13:20;12.88;;;11.70;;
10269;SDS011;70826;50.930;5.334;2023-11-19T06:15:46;12.38;;;10.50;;
10269;SDS011;70826;50.930;5.334;2023-11-19T06:18:17;12.23;;;10.98;;
10269;SDS011;70826;50.930;5.334;2023-11-19T06:20:47;11.52;;;10.40;;
10269;SDS011;70826;50.930;5.334;2023-11-19T06:23:15;11.77;;;10.45;;
10269;SDS011;70826;50.930;5.334;2023-11-19T06:25:41;11.32;;;10.20;;
10269;SDS011;70826;50.930;5.334;2023-11-19T06:28:09;11.10;;;10.02;;
10269;SDS011;70826;50.930;5.334;2023-11-19T06:30:38;10.77;;;9.60;;
10269;SDS011;70826;50.930;5.334;2023-11-19T06:33:06;11.65;;;10.45;;
10269;SDS011;70826;50.930;5.334;2023-11-19T06:35:32;10.70;;;9.60;;
10269;SDS011;70826;50.930;5.334;2023-11-19T06:38:05;11.82;;;10.65;;
10269;SDS011;70826;50.930;5.334;2023-11-19T06:40:33;11.07;;;9.98;;
10269;SDS011;70826;50.930;5.334;2023-11-19T06:43:02;12.23;;;11.05;;
10269;SDS011;70826;50.930;5.334;2023-11-19T06:45:33;10.90;;;9.43;;
10269;SDS011;70826;50.930;5.334;2023-11-19T06:48:02;11.52;;;10.40;;
10269;SDS011;70826;50.930;5.334;2023-11-19T06:50:30;9.90;;;8.50;;
10269;SDS011;70826;50.930;5.334;2023-11-19T06:52:56;10.50;;;9.55;;
10269;SDS011;70826;50.930;5.334;2023-11-19T06:55:22;10.85;;;9.73;;
10269;SDS011;70826;50.930;5.334;2023-11-19T06:57:48;11.40;;;9.63;;
10269;SDS011;70826;50.930;5.334;2023-11-19T07:00:18;11.88;;;10.70;;
10269;SDS011;70826;50.930;5.334;2023-11-19T07:02:45;11.45;;;10.10;;
10269;SDS011;70826;50.930;5.334;2023-11-19T07:05:13;11.60;;;10.13;;
10269;SDS011;70826;50.930;5.334;2023-11-19T07:07:38;12.73;;;10.18;;
10269;SDS011;70826;50.930;5.334;2023-11-19T07:10:08;10.68;;;9.63;;
10269;SDS011;70826;50.930;5.334;2023-11-19T07:12:36;10.80;;;9.70;;
10269;SDS011;70826;50.930;5.334;2023-11-19T07:15:04;11.07;;;10.02;;
10269;SDS011;70826;50.930;5.334;2023-11-19T07:17:31;10.60;;;9.23;;
10269;SDS011;70826;50.930;5.334;2023-11-19T07:19:56;11.32;;;9.98;;
10269;SDS011;70826;50.930;5.334;2023-11-19T07:22:26;12.02;;;10.68;;
10269;SDS011;70826;50.930;5.334;2023-11-19T07:24:55;10.27;;;9.32;;
10269;SDS011;70826;50.930;5.334;2023-11-19T07:27:26;35.53;;;13.55;;
10269;SDS011;70826;50.930;5.334;2023-11-19T07:29:51;47.60;;;13.52;;
10269;SDS011;70826;50.930;5.334;2023-11-19T07:32:17;40.03;;;12.68;;
10269;SDS011;70826;50.930;5.334;2023-11-19T07:34:45;29.48;;;11.95;;
10269;SDS011;70826;50.930;5.334;2023-11-19T07:37:13;23.58;;;11.55;;
10269;SDS011;70826;50.930;5.334;2023-11-19T07:39:38;24.77;;;9.85;;
10269;SDS011;70826;50.930;5.334;2023-11-19T07:42:06;20.13;;;11.60;;
10269;SDS011;70826;50.930;5.334;2023-11-19T07:44:31;21.63;;;12.25;;
10269;SDS011;70826;50.930;5.334;2023-11-19T07:46:57;18.58;;;11.10;;
10269;SDS011;70826;50.930;5.334;2023-11-19T07:49:23;27.90;;;10.93;;
10269;SDS011;70826;50.930;5.334;2023-11-19T07:51:49;16.83;;;10.00;;
10269;SDS011;70826;50.930;5.334;2023-11-19T07:54:14;13.85;;;10.02;;
10269;SDS011;70826;50.930;5.334;2023-11-19T07:56:40;16.27;;;9.80;;
10269;SDS011;70826;50.930;5.334;2023-11-19T07:59:08;12.98;;;9.70;;
10269;SDS011;70826;50.930;5.334;2023-11-19T08:01:39;13.05;;;9.27;;
10269;SDS011;70826;50.930;5.334;2023-11-19T08:04:07;14.52;;;8.98;;
10269;SDS011;70826;50.930;5.334;2023-11-19T08:06:32;18.48;;;9.52;;
10269;SDS011;70826;50.930;5.334;2023-11-19T08:09:00;12.20;;;9.20;;
10269;SDS011;70826;50.930;5.334;2023-11-19T08:11:28;14.85;;;8.68;;
10269;SDS011;70826;50.930;5.334;2023-11-19T08:13:54;14.30;;;8.88;;
10269;SDS011;70826;50.930;5.334;2023-11-19T08:16:24;12.00;;;8.88;;
10269;SDS011;70826;50.930;5.334;2023-11-19T08:18:52;11.77;;;8.77;;
10269;SDS011;70826;50.930;5.334;2023-11-19T08:21:22;12.65;;;8.82;;
10269;SDS011;70826;50.930;5.334;2023-11-19T08:23:47;11.35;;;8.20;;
10269;SDS011;70826;50.930;5.334;2023-11-19T08:26:16;12.30;;;8.90;;
10269;SDS011;70826;50.930;5.334;2023-11-19T08:28:44;13.38;;;7.40;;
10269;SDS011;70826;50.930;5.334;2023-11-19T08:31:12;9.52;;;8.30;;
10269;SDS011;70826;50.930;5.334;2023-11-19T08:33:40;12.75;;;8.20;;
10269;SDS011;70826;50.930;5.334;2023-11-19T08:36:08;10.68;;;8.68;;
10269;SDS011;70826;50.930;5.334;2023-11-19T08:38:34;10.68;;;8.50;;
10269;SDS011;70826;50.930;5.334;2023-11-19T08:40:59;15.68;;;8.90;;
10269;SDS011;70826;50.930;5.334;2023-11-19T08:43:27;10.80;;;7.97;;
10269;SDS011;70826;50.930;5.334;2023-11-19T08:45:56;9.65;;;8.10;;
10269;SDS011;70826;50.930;5.334;2023-11-19T08:48:24;10.57;;;7.88;;
10269;SDS011;70826;50.930;5.334;2023-11-19T08:50:50;13.40;;;8.57;;
10269;SDS011;70826;50.930;5.334;2023-11-19T08:53:19;11.25;;;8.25;;
10269;SDS011;70826;50.930;5.334;2023-11-19T08:55:46;12.80;;;8.60;;
10269;SDS011;70826;50.930;5.334;2023-11-19T08:58:12;22.45;;;10.35;;
10269;SDS011;70826;50.930;5.334;2023-11-19T09:00:38;58.47;;;18.23;;
10269;SDS011;70826;50.930;5.334;2023-11-19T09:03:03;53.35;;;15.13;;
10269;SDS011;70826;50.930;5.334;2023-11-19T09:05:31;45.70;;;15.43;;
10269;SDS011;70826;50.930;5.334;2023-11-19T09:08:01;44.65;;;16.45;;
10269;SDS011;70826;50.930;5.334;2023-11-19T09:10:29;44.70;;;16.83;;
10269;SDS011;70826;50.930;5.334;2023-11-19T09:12:57;35.47;;;13.65;;
10269;SDS011;70826;50.930;5.334;2023-11-19T09:15:25;32.45;;;13.02;;
10269;SDS011;70826;50.930;5.334;2023-11-19T09:17:57;31.08;;;13.40;;
10269;SDS011;70826;50.930;5.334;2023-11-19T09:20:25;24.27;;;12.63;;
10269;SDS011;70826;50.930;5.334;2023-11-19T09:22:51;25.17;;;11.00;;
10269;SDS011;70826;50.930;5.334;2023-11-19T09:25:21;19.33;;;10.23;;
10269;SDS011;70826;50.930;5.334;2023-11-19T09:27:47;26.67;;;10.73;;
10269;SDS011;70826;50.930;5.334;2023-11-19T09:30:15;22.90;;;10.23;;
10269;SDS011;70826;50.930;5.334;2023-11-19T09:32:43;17.88;;;9.35;;
10269;SDS011;70826;50.930;5.334;2023-11-19T09:35:08;23.50;;;9.93;;
10269;SDS011;70826;50.930;5.334;2023-11-19T09:37:38;15.82;;;9.32;;
10269;SDS011;70826;50.930;5.334;2023-11-19T09:40:09;21.48;;;9.50;;
10269;SDS011;70826;50.930;5.334;2023-11-19T09:42:43;16.48;;;9.00;;
10269;SDS011;70826;50.930;5.334;2023-11-19T09:45:13;16.63;;;9.43;;
10269;SDS011;70826;50.930;5.334;2023-11-19T09:47:42;14.35;;;8.57;;
10269;SDS011;70826;50.930;5.334;2023-11-19T09:50:14;12.75;;;8.93;;
10269;SDS011;70826;50.930;5.334;2023-11-19T09:52:45;16.92;;;8.57;;
10269;SDS011;70826;50.930;5.334;2023-11-19T09:55:14;17.08;;;8.70;;
10269;SDS011;70826;50.930;5.334;2023-11-19T09:57:40;11.98;;;7.97;;
10269;SDS011;70826;50.930;5.334;2023-11-19T10:00:09;13.93;;;8.10;;
10269;SDS011;70826;50.930;5.334;2023-11-19T10:02:36;12.45;;;8.55;;
10269;SDS011;70826;50.930;5.334;2023-11-19T10:05:07;12.73;;;8.27;;
10269;SDS011;70826;50.930;5.334;2023-11-19T10:07:40;12.30;;;8.65;;
10269;SDS011;70826;50.930;5.334;2023-11-19T10:10:06;13.45;;;8.52;;
10269;SDS011;70826;50.930;5.334;2023-11-19T10:12:36;12.93;;;8.73;;
10269;SDS011;70826;50.930;5.334;2023-11-19T10:15:04;12.68;;;8.43;;
10269;SDS011;70826;50.930;5.334;2023-11-19T10:17:34;11.02;;;8.45;;
10269;SDS011;70826;50.930;5.334;2023-11-19T10:20:03;11.48;;;8.50;;
10269;SDS011;70826;50.930;5.334;2023-11-19T10:22:32;12.40;;;8.32;;
10269;SDS011;70826;50.930;5.334;2023-11-19T10:25:26;10.02;;;8.55;;
10269;SDS011;70826;50.930;5.334;2023-11-19T10:27:56;10.45;;;8.07;;
10269;SDS011;70826;50.930;5.334;2023-11-19T10:33:10;13.35;;;7.82;;
10269;SDS011;70826;50.930;5.334;2023-11-19T10:35:51;9.95;;;7.68;;
10269;SDS011;70826;50.930;5.334;2023-11-19T10:38:25;10.55;;;8.00;;
10269;SDS011;70826;50.930;5.334;2023-11-19T10:40:54;9.15;;;7.53;;
10269;SDS011;70826;50.930;5.334;2023-11-19T10:43:22;10.20;;;8.05;;
10269;SDS011;70826;50.930;5.334;2023-11-19T10:45:53;9.95;;;7.32;;
10269;SDS011;70826;50.930;5.334;2023-11-19T10:48:18;10.27;;;7.95;;
10269;SDS011;70826;50.930;5.334;2023-11-19T10:50:52;9.57;;;7.72;;
10269;SDS011;70826;50.930;5.334;2023-11-19T10:53:22;9.82;;;7.28;;
10269;SDS011;70826;50.930;5.334;2023-11-19T10:55:54;10.50;;;7.55;;
10269;SDS011;70826;50.930;5.334;2023-11-19T10:58:24;9.32;;;7.82;;
10269;SDS011;70826;50.930;5.334;2023-11-19T11:01:01;9.68;;;7.55;;
10269;SDS011;70826;50.930;5.334;2023-11-19T11:03:43;11.75;;;7.97;;
10269;SDS011;70826;50.930;5.334;2023-11-19T11:06:11;10.90;;;8.23;;
10269;SDS011;70826;50.930;5.334;2023-11-19T11:08:42;8.18;;;7.43;;
10269;SDS011;70826;50.930;5.334;2023-11-19T11:11:09;9.40;;;7.28;;
10269;SDS011;70826;50.930;5.334;2023-11-19T11:13:43;10.98;;;7.10;;
10269;SDS011;70826;50.930;5.334;2023-11-19T11:16:14;8.32;;;7.45;;
10269;SDS011;70826;50.930;5.334;2023-11-19T11:18:48;11.00;;;8.50;;
10269;SDS011;70826;50.930;5.334;2023-11-19T11:21:16;10.52;;;8.30;;
10269;SDS011;70826;50.930;5.334;2023-11-19T11:30:00;8.70;;;7.82;;
10269;SDS011;70826;50.930;5.334;2023-11-19T11:35:31;9.02;;;8.13;;
10269;SDS011;70826;50.930;5.334;2023-11-19T11:38:06;13.82;;;7.95;;
10269;SDS011;70826;50.930;5.334;2023-11-19T11:40:32;11.23;;;7.88;;
10269;SDS011;70826;50.930;5.334;2023-11-19T11:43:02;9.38;;;8.10;;
10269;SDS011;70826;50.930;5.334;2023-11-19T11:45:40;10.25;;;8.77;;
10269;SDS011;70826;50.930;5.334;2023-11-19T11:50:52;10.50;;;8.40;;
10269;SDS011;70826;50.930;5.334;2023-11-19T11:53:22;8.93;;;8.02;;
10269;SDS011;70826;50.930;5.334;2023-11-19T11:55:53;9.45;;;8.18;;
10269;SDS011;70826;50.930;5.334;2023-11-19T11:58:30;9.13;;;8.00;;
10269;SDS011;70826;50.930;5.334;2023-11-19T12:00:59;10.95;;;8.38;;
10269;SDS011;70826;50.930;5.334;2023-11-19T12:03:30;10.45;;;8.02;;
10269;SDS011;70826;50.930;5.334;2023-11-19T12:05:57;10.00;;;8.98;;
10269;SDS011;70826;50.930;5.334;2023-11-19T12:08:29;9.13;;;8.23;;
10269;SDS011;70826;50.930;5.334;2023-11-19T12:10:55;9.50;;;8.05;;
10269;SDS011;70826;50.930;5.334;2023-11-19T12:13:29;9.55;;;8.18;;
10269;SDS011;70826;50.930;5.334;2023-11-19T12:16:11;9.90;;;7.68;;
10269;SDS011;70826;50.930;5.334;2023-11-19T12:18:38;8.95;;;7.60;;
10269;SDS011;70826;50.930;5.334;2023-11-19T12:21:05;9.57;;;8.25;;
10269;SDS011;70826;50.930;5.334;2023-11-19T12:23:32;10.48;;;8.32;;
10269;SDS011;70826;50.930;5.334;2023-11-19T12:26:02;9.23;;;8.35;;
10269;SDS011;70826;50.930;5.334;2023-11-19T12:28:35;12.88;;;8.45;;
10269;SDS011;70826;50.930;5.334;2023-11-19T12:31:07;11.05;;;7.72;;
10269;SDS011;70826;50.930;5.334;2023-11-19T12:33:36;8.25;;;7.38;;
10269;SDS011;70826;50.930;5.334;2023-11-19T12:36:03;9.65;;;8.35;;
10269;SDS011;70826;50.930;5.334;2023-11-19T12:38:33;11.77;;;8.02;;
10269;SDS011;70826;50.930;5.334;2023-11-19T12:41:07;8.82;;;7.82;;
10269;SDS011;70826;50.930;5.334;2023-11-19T12:43:36;9.77;;;7.88;;
10269;SDS011;70826;50.930;5.334;2023-11-19T12:48:47;9.55;;;7.93;;
10269;SDS011;70826;50.930;5.334;2023-11-19T12:51:18;9.02;;;7.75;;
10269;SDS011;70826;50.930;5.334;2023-11-19T12:53:50;9.70;;;8.02;;
10269;SDS011;70826;50.930;5.334;2023-11-19T12:56:25;9.75;;;7.53;;
10269;SDS011;70826;50.930;5.334;2023-11-19T12:58:54;11.48;;;7.85;;
10269;SDS011;70826;50.930;5.334;2023-11-19T13:01:22;8.60;;;6.80;;
10269;SDS011;70826;50.930;5.334;2023-11-19T13:03:50;9.00;;;8.00;;
10269;SDS011;70826;50.930;5.334;2023-11-19T13:06:23;8.77;;;7.18;;
10269;SDS011;70826;50.930;5.334;2023-11-19T13:08:49;8.30;;;7.03;;
10269;SDS011;70826;50.930;5.334;2023-11-19T13:11:32;8.00;;;7.28;;
10269;SDS011;70826;50.930;5.334;2023-11-19T13:14:04;8.20;;;7.28;;
10269;SDS011;70826;50.930;5.334;2023-11-19T13:16:30;8.60;;;7.18;;
10269;SDS011;70826;50.930;5.334;2023-11-19T13:18:58;12.30;;;8.02;;
10269;SDS011;70826;50.930;5.334;2023-11-19T13:21:30;8.07;;;7.03;;
10269;SDS011;70826;50.930;5.334;2023-11-19T13:23:56;8.45;;;6.28;;
10269;SDS011;70826;50.930;5.334;2023-11-19T13:26:22;7.18;;;6.53;;
10269;SDS011;70826;50.930;5.334;2023-11-19T13:28:48;8.57;;;6.68;;
10269;SDS011;70826;50.930;5.334;2023-11-19T13:31:14;7.07;;;6.22;;
10269;SDS011;70826;50.930;5.334;2023-11-19T13:33:40;9.68;;;6.50;;
10269;SDS011;70826;50.930;5.334;2023-11-19T13:36:09;10.43;;;6.97;;
10269;SDS011;70826;50.930;5.334;2023-11-19T13:38:37;9.30;;;6.78;;
10269;SDS011;70826;50.930;5.334;2023-11-19T13:41:06;8.65;;;6.50;;
10269;SDS011;70826;50.930;5.334;2023-11-19T13:43:35;8.25;;;5.88;;
10269;SDS011;70826;50.930;5.334;2023-11-19T13:46:01;6.75;;;6.15;;
10269;SDS011;70826;50.930;5.334;2023-11-19T13:48:28;8.02;;;6.15;;
10269;SDS011;70826;50.930;5.334;2023-11-19T13:50:54;6.65;;;6.03;;
10269;SDS011;70826;50.930;5.334;2023-11-19T13:53:24;7.93;;;6.40;;
10269;SDS011;70826;50.930;5.334;2023-11-19T13:55:52;8.90;;;6.40;;
10269;SDS011;70826;50.930;5.334;2023-11-19T13:58:20;7.50;;;6.25;;
10269;SDS011;70826;50.930;5.334;2023-11-19T14:00:48;7.63;;;6.35;;
10269;SDS011;70826;50.930;5.334;2023-11-19T14:03:18;9.25;;;6.13;;
10269;SDS011;70826;50.930;5.334;2023-11-19T14:05:43;7.97;;;6.35;;
10269;SDS011;70826;50.930;5.334;2023-11-19T14:08:12;7.75;;;6.15;;
10269;SDS011;70826;50.930;5.334;2023-11-19T14:10:38;7.20;;;6.28;;
10269;SDS011;70826;50.930;5.334;2023-11-19T14:13:05;9.30;;;6.20;;
10269;SDS011;70826;50.930;5.334;2023-11-19T14:15:34;9.10;;;5.85;;
10269;SDS011;70826;50.930;5.334;2023-11-19T14:18:01;8.00;;;5.60;;
10269;SDS011;70826;50.930;5.334;2023-11-19T14:20:30;9.55;;;5.82;;
10269;SDS011;70826;50.930;5.334;2023-11-19T14:23:00;8.38;;;6.38;;
10269;SDS011;70826;50.930;5.334;2023-11-19T14:25:26;11.82;;;6.28;;
10269;SDS011;70826;50.930;5.334;2023-11-19T14:27:51;7.90;;;5.80;;
10269;SDS011;70826;50.930;5.334;2023-11-19T14:30:17;9.18;;;5.88;;
10269;SDS011;70826;50.930;5.334;2023-11-19T14:32:47;7.15;;;5.65;;
10269;SDS011;70826;50.930;5.334;2023-11-19T14:35:13;10.20;;;6.35;;
10269;SDS011;70826;50.930;5.334;2023-11-19T14:37:41;8.23;;;6.18;;
10269;SDS011;70826;50.930;5.334;2023-11-19T14:40:07;7.78;;;5.53;;
10269;SDS011;70826;50.930;5.334;2023-11-19T14:42:36;10.60;;;6.15;;
10269;SDS011;70826;50.930;5.334;2023-11-19T14:45:07;8.25;;;5.68;;
10269;SDS011;70826;50.930;5.334;2023-11-19T14:47:37;11.25;;;6.18;;
10269;SDS011;70826;50.930;5.334;2023-11-19T14:50:05;6.57;;;5.88;;
10269;SDS011;70826;50.930;5.334;2023-11-19T14:52:34;9.18;;;5.72;;
10269;SDS011;70826;50.930;5.334;2023-11-19T14:55:01;8.23;;;5.72;;
10269;SDS011;70826;50.930;5.334;2023-11-19T14:57:31;9.48;;;5.85;;